Time;durP1;ratioP1;P1;durP2;ratioP2;P2;SDS_P1;SDS_P2;PMS_P1;PMS_P2;Temp;Humidity;BMP_temperature;BMP_pressure;BME280_temperature;BME280_humidity;BME280_pressure;Samples;Min_cycle;Max_cycle;Signal;HPM_P1;HPM_P2
2022/09/09 00:00:51;;;;;;;0.98;0.88;;;12.90;99.90;;;;;;5050003;28;20098;-73
2022/09/09 00:03:24;;;;;;;3.55;1.58;;;13.00;99.90;;;;;;5049725;28;20054;-73
2022/09/09 00:06:07;;;;;;;1.02;0.40;;;13.00;99.90;;;;;;5050260;28;20042;-72
2022/09/09 00:09:00;;;;;;;0.75;0.75;;;13.00;99.90;;;;;;5033709;28;20041;-73
2022/09/09 00:12:03;;;;;;;1.20;0.57;;;12.90;99.90;;;;;;5050878;28;20045;-73
2022/09/09 00:14:51;;;;;;;0.28;0.28;;;12.80;99.90;;;;;;4979327;28;20048;-72
2022/09/09 00:17:44;;;;;;;0.88;0.63;;;12.80;99.90;;;;;;5050585;28;20030;-72
2022/09/09 00:20:19;;;;;;;2.38;1.23;;;12.80;99.90;;;;;;5051283;28;20045;-73
2022/09/09 00:22:53;;;;;;;0.98;0.75;;;12.80;99.90;;;;;;5050654;28;20053;-72
2022/09/09 00:25:39;;;;;;;1.15;0.75;;;12.70;99.90;;;;;;5050269;28;20048;-72
2022/09/09 00:28:17;;;;;;;1.33;0.43;;;12.70;99.90;;;;;;5050746;28;20049;-72
2022/09/09 00:30:43;;;;;;;3.05;0.52;;;12.60;99.90;;;;;;5050550;28;20099;-71
2022/09/09 00:33:15;;;;;;;0.73;0.65;;;12.60;99.90;;;;;;5050008;28;20033;-72
2022/09/09 00:36:15;;;;;;;0.45;0.45;;;12.60;99.90;;;;;;5050020;28;20104;-72
2022/09/09 00:38:52;;;;;;;0.63;0.57;;;12.60;99.90;;;;;;5036392;28;20058;-72
2022/09/09 00:41:39;;;;;;;0.68;0.43;;;12.60;99.90;;;;;;5050322;28;20056;-72
2022/09/09 00:44:26;;;;;;;0.10;0.10;;;12.60;99.90;;;;;;5050411;28;20107;-72
2022/09/09 00:47:44;;;;;;;1.77;1.23;;;12.50;99.90;;;;;;5049702;28;20427;-73
2022/09/09 00:50:17;;;;;;;0.50;0.50;;;12.50;99.90;;;;;;5016898;28;20049;-73
2022/09/09 00:52:51;;;;;;;0.13;0.13;;;12.60;99.90;;;;;;5049988;28;20049;-74
2022/09/09 00:55:28;;;;;;;0.10;0.10;;;12.50;99.90;;;;;;5050251;28;20054;-74
2022/09/09 00:57:55;;;;;;;0.57;0.47;;;12.50;99.90;;;;;;5049380;28;20057;-72
2022/09/09 01:00:24;;;;;;;1.13;1.02;;;12.50;99.90;;;;;;5049865;28;20091;-73
2022/09/09 01:02:53;;;;;;;0.55;0.32;;;12.40;99.90;;;;;;5052221;28;20045;-73
2022/09/09 01:05:22;;;;;;;0.40;0.40;;;12.30;99.90;;;;;;5036235;28;20110;-72
2022/09/09 01:07:52;;;;;;;0.30;0.20;;;12.30;99.90;;;;;;5053994;28;20029;-73
2022/09/09 01:10:53;;;;;;;0.85;0.73;;;12.30;99.90;;;;;;5054294;28;20102;-72
2022/09/09 01:13:30;;;;;;;3.83;0.30;;;12.30;99.90;;;;;;5054248;28;20056;-75
2022/09/09 01:15:59;;;;;;;0.77;0.77;;;12.30;99.90;;;;;;5053360;28;20080;-71
2022/09/09 01:18:40;;;;;;;2.10;0.65;;;12.40;99.90;;;;;;5053584;28;20045;-72
2022/09/09 01:21:19;;;;;;;1.08;0.50;;;12.30;99.90;;;;;;5054036;28;20048;-72
2022/09/09 01:24:16;;;;;;;0.95;0.77;;;12.30;99.90;;;;;;5053807;28;20093;-72
2022/09/09 01:26:43;;;;;;;0.40;0.40;;;12.30;99.90;;;;;;5053592;28;20041;-72
2022/09/09 01:29:15;;;;;;;0.77;0.70;;;12.30;99.90;;;;;;5051915;28;20041;-75
2022/09/09 01:32:02;;;;;;;0.05;0.05;;;12.30;99.90;;;;;;5052711;28;20052;-73
2022/09/09 01:34:33;;;;;;;1.73;0.98;;;12.30;99.90;;;;;;5049863;28;20088;-74
2022/09/09 01:37:08;;;;;;;0.73;0.47;;;12.30;99.90;;;;;;5050887;28;20055;-71
2022/09/09 01:39:35;;;;;;;0.30;0.30;;;12.40;99.90;;;;;;5051311;28;20042;-73
2022/09/09 01:42:03;;;;;;;1.40;1.30;;;12.40;99.90;;;;;;5051311;28;20053;-72
2022/09/09 01:44:30;;;;;;;0.88;0.65;;;12.50;99.90;;;;;;5049621;28;20048;-72
2022/09/09 01:46:56;;;;;;;0.77;0.77;;;12.70;99.90;;;;;;5049462;28;20042;-72
2022/09/09 01:49:22;;;;;;;0.13;0.10;;;12.50;99.90;;;;;;5048765;28;20071;-72
2022/09/09 01:51:51;;;;;;;0.73;0.73;;;12.60;99.90;;;;;;5051395;28;20041;-72
2022/09/09 01:54:18;;;;;;;1.48;0.93;;;12.60;99.90;;;;;;5030552;28;20496;-72
2022/09/09 01:57:01;;;;;;;1.10;0.95;;;12.60;99.90;;;;;;5075287;22;20461;-76
2022/09/09 01:59:51;;;;;;;0.30;0.30;;;12.70;99.90;;;;;;5018072;28;20073;-76
2022/09/09 02:02:30;;;;;;;1.00;0.73;;;12.70;99.90;;;;;;5018803;28;20049;-76
2022/09/09 02:05:24;;;;;;;0.10;0.10;;;12.60;99.90;;;;;;5018935;28;20084;-75
2022/09/09 02:07:57;;;;;;;0.43;0.17;;;12.70;99.90;;;;;;5038121;28;20041;-76
2022/09/09 02:10:30;;;;;;;1.17;1.00;;;12.70;99.90;;;;;;5037901;28;20037;-77
2022/09/09 02:13:06;;;;;;;0.20;0.20;;;12.80;99.90;;;;;;5037993;28;20054;-77
2022/09/09 02:15:43;;;;;;;0.65;0.43;;;12.80;99.90;;;;;;5003668;28;20088;-77
2022/09/09 02:18:13;;;;;;;2.20;1.20;;;12.80;99.90;;;;;;5028732;28;20546;-77
2022/09/09 02:20:39;;;;;;;0.20;0.20;;;12.90;99.90;;;;;;5037311;28;20037;-76
2022/09/09 02:23:08;;;;;;;0.40;0.35;;;13.10;99.90;;;;;;5037680;28;20045;-77
2022/09/09 02:25:36;;;;;;;0.25;0.22;;;13.00;99.90;;;;;;5038023;28;20086;-77
2022/09/09 02:28:04;;;;;;;0.45;0.45;;;12.90;99.90;;;;;;5037740;28;20049;-76
2022/09/09 02:30:32;;;;;;;1.05;0.40;;;13.00;99.90;;;;;;5036890;28;20484;-76
2022/09/09 02:33:01;;;;;;;0.03;0.03;;;13.00;99.90;;;;;;5037334;28;20143;-76
2022/09/09 02:35:30;;;;;;;0.85;0.80;;;13.10;99.90;;;;;;5037490;28;20129;-76
2022/09/09 02:38:00;;;;;;;1.75;0.95;;;13.10;99.90;;;;;;5036911;28;20053;-76
2022/09/09 02:40:26;;;;;;;0.38;0.38;;;13.10;99.90;;;;;;5035625;28;20045;-76
2022/09/09 02:42:54;;;;;;;1.13;0.85;;;13.20;99.90;;;;;;5037000;28;20392;-77
2022/09/09 02:45:25;;;;;;;1.80;1.23;;;13.20;99.90;;;;;;5036449;28;20041;-76
2022/09/09 02:48:03;;;;;;;0.43;0.43;;;13.20;99.90;;;;;;5036603;28;20046;-76
2022/09/09 02:50:51;;;;;;;1.10;0.98;;;13.30;99.90;;;;;;5036817;28;20041;-76
2022/09/09 02:53:22;;;;;;;1.05;0.93;;;13.30;99.90;;;;;;5035139;28;20120;-77
2022/09/09 02:55:54;;;;;;;0.43;0.40;;;13.70;99.90;;;;;;5036669;28;20049;-77
2022/09/09 02:58:21;;;;;;;1.65;0.95;;;13.40;99.90;;;;;;5036229;28;20096;-77
2022/09/09 03:00:48;;;;;;;1.45;0.75;;;14.00;99.90;;;;;;5036407;28;20049;-76
2022/09/09 03:03:16;;;;;;;1.08;0.68;;;13.40;99.90;;;;;;5036314;28;20120;-76
2022/09/09 03:05:42;;;;;;;0.20;0.20;;;13.50;99.90;;;;;;5036574;28;20041;-77
2022/09/09 03:08:07;;;;;;;0.45;0.45;;;13.50;99.90;;;;;;5036873;28;20049;-78
2022/09/09 03:10:34;;;;;;;1.25;0.85;;;13.50;99.90;;;;;;5036657;28;20045;-79
2022/09/09 03:13:00;;;;;;;2.00;0.95;;;13.60;99.90;;;;;;5036788;28;20119;-79
2022/09/09 03:15:30;;;;;;;0.93;0.70;;;13.70;99.90;;;;;;5036664;28;20060;-78
2022/09/09 03:17:57;;;;;;;0.63;0.40;;;13.80;99.90;;;;;;5018868;28;20053;-78
2022/09/09 03:20:26;;;;;;;1.90;0.85;;;13.70;99.90;;;;;;5036671;28;20120;-78
2022/09/09 03:22:56;;;;;;;0.20;0.20;;;13.70;99.90;;;;;;5036610;28;20124;-78
2022/09/09 03:25:25;;;;;;;0.75;0.25;;;13.80;99.90;;;;;;5036564;28;20063;-79
2022/09/09 03:27:54;;;;;;;0.93;0.43;;;13.80;99.90;;;;;;5018847;28;20050;-78
2022/09/09 03:30:20;;;;;;;0.25;0.25;;;13.80;99.90;;;;;;5035598;28;20061;-76
2022/09/09 03:32:46;;;;;;;0.28;0.28;;;13.90;99.90;;;;;;5035380;28;20113;-77
2022/09/09 03:35:11;;;;;;;0.25;0.20;;;13.90;99.90;;;;;;5034944;28;20114;-76
2022/09/09 03:37:38;;;;;;;0.13;0.13;;;13.90;99.90;;;;;;5033728;28;20045;-77
2022/09/09 03:40:04;;;;;;;1.08;0.80;;;14.00;99.90;;;;;;5032910;28;20045;-76
2022/09/09 03:42:31;;;;;;;0.10;0.10;;;13.90;99.90;;;;;;5032874;28;20042;-77
2022/09/09 03:44:57;;;;;;;1.20;0.50;;;14.00;99.90;;;;;;5032827;28;20045;-76
2022/09/09 03:47:23;;;;;;;0.10;0.10;;;14.30;99.90;;;;;;5033118;28;20084;-76
2022/09/09 03:49:49;;;;;;;0.20;0.10;;;14.00;99.90;;;;;;5033186;28;20073;-76
2022/09/09 03:52:15;;;;;;;0.17;0.17;;;14.00;99.90;;;;;;5033410;28;20045;-76
2022/09/09 03:54:42;;;;;;;0.25;0.17;;;14.00;99.90;;;;;;5033266;28;20175;-77
2022/09/09 03:57:08;;;;;;;0.10;0.10;;;14.00;99.90;;;;;;5032937;28;20053;-78
2022/09/09 03:59:34;;;;;;;0.00;0.00;;;14.00;99.90;;;;;;5032545;28;20495;-78
2022/09/09 04:02:01;;;;;;;0.95;0.52;;;14.00;99.90;;;;;;5032932;28;20385;-78
2022/09/09 04:04:26;;;;;;;0.60;0.60;;;14.10;99.90;;;;;;5032820;28;20046;-76
2022/09/09 04:06:53;;;;;;;1.05;0.63;;;14.00;99.90;;;;;;5032646;28;20044;-77
2022/09/09 04:09:19;;;;;;;0.20;0.10;;;14.00;99.90;;;;;;5032558;28;20488;-76
2022/09/09 04:11:45;;;;;;;0.10;0.10;;;14.00;99.90;;;;;;5032630;28;20046;-76
2022/09/09 04:14:12;;;;;;;0.13;0.13;;;13.90;99.90;;;;;;5014708;28;20037;-77
2022/09/09 04:16:38;;;;;;;1.95;1.27;;;13.90;99.90;;;;;;5032750;28;20405;-77
2022/09/09 04:19:04;;;;;;;0.47;0.40;;;13.90;99.90;;;;;;5032525;28;20045;-77
2022/09/09 04:21:30;;;;;;;0.10;0.10;;;13.90;99.90;;;;;;5032506;28;20118;-77
2022/09/09 04:23:56;;;;;;;0.25;0.17;;;13.90;99.90;;;;;;5032443;28;20180;-77
2022/09/09 04:26:22;;;;;;;0.38;0.38;;;13.90;99.90;;;;;;5032381;28;20128;-77
2022/09/09 04:28:47;;;;;;;0.20;0.10;;;13.90;99.90;;;;;;5032262;28;20041;-76
2022/09/09 04:31:23;;;;;;;0.43;0.43;;;13.90;99.90;;;;;;5032679;28;20064;-77
2022/09/09 04:33:49;;;;;;;0.45;0.45;;;13.90;99.90;;;;;;5032367;28;20045;-76
2022/09/09 04:36:16;;;;;;;0.00;0.00;;;13.90;99.90;;;;;;5032548;28;20521;-76
2022/09/09 04:38:41;;;;;;;0.63;0.45;;;13.80;99.90;;;;;;5034989;28;20503;-76
2022/09/09 04:41:07;;;;;;;0.28;0.25;;;13.80;99.90;;;;;;5036122;28;20042;-77
2022/09/09 04:43:34;;;;;;;0.47;0.47;;;13.80;99.90;;;;;;5036120;28;20049;-76
2022/09/09 04:45:59;;;;;;;0.77;0.77;;;13.80;99.90;;;;;;5036082;28;20060;-77
2022/09/09 04:48:25;;;;;;;0.17;0.17;;;13.80;99.90;;;;;;5036278;28;20076;-76
2022/09/09 04:51:00;;;;;;;0.90;0.85;;;13.80;99.90;;;;;;5036285;28;20041;-77
2022/09/09 04:53:25;;;;;;;0.68;0.52;;;14.60;99.90;;;;;;5035896;28;20044;-76
2022/09/09 04:56:06;;;;;;;0.65;0.65;;;13.80;99.90;;;;;;5036021;28;20037;-76
2022/09/09 04:58:32;;;;;;;0.40;0.40;;;13.80;99.90;;;;;;5036090;28;20061;-77
2022/09/09 05:01:18;;;;;;;0.30;0.30;;;13.80;99.90;;;;;;5036184;28;20041;-76
2022/09/09 05:03:45;;;;;;;0.60;0.52;;;13.80;99.90;;;;;;5019964;28;20042;-75
2022/09/09 05:06:16;;;;;;;0.85;0.70;;;13.70;99.90;;;;;;5036085;28;20502;-75
2022/09/09 05:08:43;;;;;;;0.30;0.20;;;13.70;99.90;;;;;;5036140;28;20037;-76
2022/09/09 05:11:18;;;;;;;1.92;0.90;;;13.70;99.90;;;;;;5036046;28;20046;-75
2022/09/09 05:13:45;;;;;;;1.40;0.55;;;13.70;99.90;;;;;;5035982;28;20077;-74
2022/09/09 05:16:11;;;;;;;1.42;0.80;;;13.70;99.90;;;;;;5035770;28;20049;-75
2022/09/09 05:18:38;;;;;;;0.32;0.30;;;13.70;99.90;;;;;;5035485;28;20430;-75
2022/09/09 05:21:06;;;;;;;0.22;0.20;;;13.70;99.90;;;;;;5018104;28;20577;-75
2022/09/09 05:23:32;;;;;;;0.13;0.13;;;13.80;99.90;;;;;;5035449;28;20045;-74
2022/09/09 05:25:58;;;;;;;0.28;0.28;;;13.70;99.90;;;;;;5035687;28;20060;-74
2022/09/09 05:28:28;;;;;;;8.77;0.88;;;13.70;99.90;;;;;;5035593;28;20041;-75
2022/09/09 05:31:04;;;;;;;4.68;1.13;;;13.90;99.90;;;;;;5035417;28;20095;-75
2022/09/09 05:33:30;;;;;;;;;;;13.70;99.90;;;;;;5035574;28;20041;-75
2022/09/09 05:36:07;;;;;;;0.57;0.38;;;13.70;99.90;;;;;;5035305;28;19928;-74
2022/09/09 05:38:34;;;;;;;1.00;0.88;;;13.70;99.90;;;;;;5035239;28;20511;-75
2022/09/09 05:41:00;;;;;;;1.00;0.90;;;13.70;99.90;;;;;;5035283;28;20092;-74
2022/09/09 05:43:27;;;;;;;2.00;0.25;;;13.70;99.90;;;;;;5017391;28;20549;-74
2022/09/09 05:46:09;;;;;;;0.90;0.90;;;13.70;99.90;;;;;;5035147;28;20073;-76
2022/09/09 05:48:39;;;;;;;0.40;0.40;;;13.70;99.90;;;;;;5017843;28;20060;-74
2022/09/09 05:51:07;;;;;;;0.65;0.47;;;13.80;99.90;;;;;;5034706;28;20049;-75
2022/09/09 05:53:34;;;;;;;1.35;0.95;;;13.90;99.90;;;;;;5034851;28;20042;-75
2022/09/09 05:56:06;;;;;;;0.43;0.30;;;14.60;99.90;;;;;;5034941;28;20407;-76
2022/09/09 05:58:33;;;;;;;0.55;0.40;;;13.70;99.90;;;;;;5034758;28;20136;-75
2022/09/09 06:01:10;;;;;;;1.65;0.77;;;13.70;99.90;;;;;;5035005;28;20056;-75
2022/09/09 06:03:37;;;;;;;5.13;0.60;;;13.70;99.90;;;;;;5034511;28;20510;-75
2022/09/09 06:06:05;;;;;;;0.20;0.20;;;13.70;99.90;;;;;;5016938;28;20098;-75
2022/09/09 06:08:38;;;;;;;0.60;0.52;;;13.70;99.90;;;;;;5034374;28;20610;-75
2022/09/09 06:11:13;;;;;;;1.48;1.20;;;13.70;99.90;;;;;;5034874;28;20041;-76
2022/09/09 06:13:39;;;;;;;1.02;0.52;;;14.00;99.90;;;;;;5034398;28;20488;-75
2022/09/09 06:16:18;;;;;;;0.40;0.40;;;13.80;99.90;;;;;;5034591;28;20042;-73
2022/09/09 06:18:44;;;;;;;0.68;0.57;;;13.80;99.90;;;;;;5034240;28;20488;-75
2022/09/09 06:21:19;;;;;;;2.25;1.40;;;13.80;99.90;;;;;;5034339;28;20048;-75
2022/09/09 06:23:45;;;;;;;1.48;0.32;;;13.80;99.90;;;;;;5034224;28;20480;-75
2022/09/09 06:26:13;;;;;;;0.77;0.43;;;13.80;99.90;;;;;;5016823;28;20404;-75
2022/09/09 06:28:39;;;;;;;0.22;0.22;;;13.90;99.90;;;;;;5034232;28;20220;-76
2022/09/09 06:31:07;;;;;;;3.00;1.13;;;13.90;99.90;;;;;;5034137;28;20160;-75
2022/09/09 06:33:39;;;;;;;0.73;0.43;;;14.00;99.90;;;;;;5034037;28;20491;-76
2022/09/09 06:36:05;;;;;;;0.60;0.60;;;14.10;99.90;;;;;;5034107;28;20385;-75
2022/09/09 06:38:31;;;;;;;0.73;0.73;;;14.20;99.90;;;;;;5033926;28;20500;-74
2022/09/09 06:40:59;;;;;;;2.00;1.33;;;14.20;99.90;;;;;;5016494;28;20042;-75
2022/09/09 06:43:28;;;;;;;0.65;0.60;;;14.20;99.90;;;;;;5033872;28;20549;-74
2022/09/09 06:45:59;;;;;;;9.15;0.45;;;14.80;99.90;;;;;;5033989;28;20041;-75
2022/09/09 06:48:28;;;;;;;1.98;1.17;;;14.30;99.90;;;;;;5016324;28;20079;-75
2022/09/09 06:51:12;;;;;;;1.98;1.23;;;14.40;99.90;;;;;;5034044;28;20459;-75
2022/09/09 06:53:39;;;;;;;0.52;0.52;;;14.50;99.90;;;;;;5016118;28;20484;-75
2022/09/09 06:56:44;;;;;;;1.67;1.23;;;14.60;99.90;;;;;;5032868;28;20116;-74
2022/09/09 06:59:11;;;;;;;0.45;0.30;;;14.80;99.90;;;;;;5033944;28;20046;-75
2022/09/09 07:01:43;;;;;;;0.45;0.38;;;14.70;99.90;;;;;;5033514;28;20049;-75
2022/09/09 07:04:10;;;;;;;0.30;0.25;;;14.70;99.90;;;;;;5033647;28;20124;-75
2022/09/09 07:06:44;;;;;;;2.17;0.40;;;14.80;99.90;;;;;;5034234;28;20361;-76
2022/09/09 07:09:12;;;;;;;1.70;0.95;;;14.80;99.90;;;;;;5033444;28;20038;-75
2022/09/09 07:11:46;;;;;;;0.90;0.65;;;14.90;99.90;;;;;;5033464;28;20041;-75
2022/09/09 07:14:13;;;;;;;0.40;0.20;;;14.90;99.90;;;;;;5016825;28;20197;-75
2022/09/09 07:16:41;;;;;;;1.23;0.75;;;14.90;99.90;;;;;;5033411;28;20088;-75
2022/09/09 07:19:07;;;;;;;0.10;0.10;;;15.00;99.90;;;;;;5016237;28;20076;-75
2022/09/09 07:21:33;;;;;;;0.93;0.52;;;15.90;99.90;;;;;;5033218;28;20578;-76
2022/09/09 07:23:59;;;;;;;1.38;0.90;;;15.20;99.90;;;;;;5033400;28;20451;-75
2022/09/09 07:26:34;;;;;;;0.40;0.40;;;15.30;99.90;;;;;;5033410;28;20045;-76
2022/09/09 07:29:00;;;;;;;1.73;0.15;;;15.30;99.90;;;;;;5033307;28;20045;-75
2022/09/09 07:31:30;;;;;;;1.02;0.32;;;16.40;99.90;;;;;;5033142;28;20049;-75
2022/09/09 07:33:55;;;;;;;0.30;0.30;;;15.50;99.90;;;;;;5032995;28;20083;-74
2022/09/09 07:36:24;;;;;;;0.28;0.28;;;15.50;99.90;;;;;;5032988;28;20050;-76
2022/09/09 07:39:01;;;;;;;0.90;0.43;;;15.60;99.90;;;;;;5015481;28;20049;-76
2022/09/09 07:41:30;;;;;;;0.40;0.38;;;15.60;99.90;;;;;;5017093;28;20120;-76
2022/09/09 07:43:55;;;;;;;1.40;0.90;;;15.70;99.90;;;;;;5015352;28;20045;-76
2022/09/09 07:46:23;;;;;;;0.20;0.15;;;15.70;99.90;;;;;;5033437;28;20171;-75
2022/09/09 07:48:51;;;;;;;0.43;0.38;;;15.80;99.90;;;;;;5015395;28;20471;-76
2022/09/09 07:51:25;;;;;;;1.75;1.10;;;15.70;99.90;;;;;;5033083;28;20227;-74
2022/09/09 07:53:54;;;;;;;0.45;0.35;;;15.80;99.90;;;;;;5032771;28;20044;-75
2022/09/09 07:56:23;;;;;;;2.17;0.63;;;15.80;99.90;;;;;;5032789;28;20045;-75
2022/09/09 07:58:50;;;;;;;0.20;0.20;;;15.80;99.90;;;;;;5032955;28;20117;-75
2022/09/09 08:01:28;;;;;;;0.03;0.03;;;15.80;99.90;;;;;;5032763;28;20124;-74
2022/09/09 08:04:02;;;;;;;1.83;1.33;;;15.80;99.90;;;;;;5033126;28;20051;-75
2022/09/09 08:06:30;;;;;;;0.45;0.43;;;16.00;99.90;;;;;;5032776;28;20068;-75
2022/09/09 08:08:56;;;;;;;0.50;0.40;;;16.10;99.90;;;;;;5032624;28;20045;-75
2022/09/09 08:11:24;;;;;;;0.43;0.35;;;16.20;99.90;;;;;;5032577;28;20056;-76
2022/09/09 08:13:51;;;;;;;0.40;0.40;;;16.30;99.90;;;;;;5031864;28;20404;-76
2022/09/09 08:16:29;;;;;;;0.30;0.25;;;16.40;99.90;;;;;;5032706;28;20046;-73
2022/09/09 08:18:55;;;;;;;0.20;0.20;;;16.70;99.90;;;;;;5032641;28;20046;-75
2022/09/09 08:21:29;;;;;;;0.00;0.00;;;17.00;99.90;;;;;;5032615;28;20392;-74
2022/09/09 08:23:56;;;;;;;2.47;0.98;;;17.40;99.90;;;;;;5032474;28;20045;-76
2022/09/09 08:26:24;;;;;;;0.10;0.10;;;17.40;99.90;;;;;;5032507;28;20049;-75
2022/09/09 08:28:52;;;;;;;5.38;0.65;;;17.20;99.90;;;;;;5015227;28;20038;-76
2022/09/09 08:31:20;;;;;;;0.32;0.30;;;17.10;99.90;;;;;;5032487;28;20121;-76
2022/09/09 08:33:47;;;;;;;2.50;1.38;;;17.10;99.90;;;;;;5032835;28;20053;-75
2022/09/09 08:36:15;;;;;;;0.20;0.20;;;17.00;99.90;;;;;;5014779;28;20045;-76
2022/09/09 08:38:42;;;;;;;0.28;0.28;;;17.00;99.90;;;;;;5032240;28;20045;-75
2022/09/09 08:41:22;;;;;;;0.17;0.15;;;17.10;99.90;;;;;;5032474;28;20098;-74
2022/09/09 08:43:51;;;;;;;1.75;1.05;;;17.30;99.90;;;;;;5032289;28;20519;-75
2022/09/09 08:46:43;;;;;;;0.40;0.40;;;17.00;99.90;;;;;;5032430;28;20056;-75
2022/09/09 08:49:17;;;;;;;0.15;0.13;;;17.10;99.90;;;;;;5032150;28;20050;-74
2022/09/09 08:51:43;;;;;;;0.13;0.13;;;17.30;99.90;;;;;;5032212;28;20488;-75
2022/09/09 08:54:09;;;;;;;0.22;0.22;;;17.50;99.90;;;;;;5032197;28;20041;-75
2022/09/09 08:56:36;;;;;;;2.08;1.17;;;17.70;99.90;;;;;;5031956;28;20057;-76
2022/09/09 08:59:03;;;;;;;0.03;0.03;;;18.00;99.90;;;;;;5032290;28;20046;-76
2022/09/09 09:01:57;;;;;;;3.72;0.70;;;18.10;99.90;;;;;;5032047;28;20052;-75
2022/09/09 09:04:36;;;;;;;0.10;0.10;;;18.30;99.90;;;;;;5032358;28;20052;-76
2022/09/09 09:07:17;;;;;;;0.65;0.52;;;19.60;99.90;;;;;;5032068;28;20041;-76
2022/09/09 09:10:28;;;;;;;0.20;0.20;;;19.50;99.90;;;;;;5034773;28;20049;-75
2022/09/09 09:12:53;;;;;;;2.88;1.00;;;19.80;99.90;;;;;;5018051;28;20467;-77
2022/09/09 09:15:22;;;;;;;0.17;0.17;;;19.90;99.90;;;;;;5035121;28;20065;-77
2022/09/09 09:17:48;;;;;;;0.65;0.63;;;19.80;99.90;;;;;;5032903;28;20041;-75
2022/09/09 09:20:16;;;;;;;0.75;0.43;;;19.90;99.90;;;;;;5031957;28;20064;-75
2022/09/09 09:22:50;;;;;;;0.35;0.20;;;19.70;99.90;;;;;;5032652;28;20041;-77
2022/09/09 09:25:19;;;;;;;0.75;0.55;;;19.60;99.90;;;;;;5035354;28;20399;-76
2022/09/09 09:28:01;;;;;;;0.35;0.25;;;19.50;99.90;;;;;;5035556;28;20052;-77
2022/09/09 09:30:35;;;;;;;0.20;0.10;;;19.40;99.90;;;;;;5035426;28;20168;-75
2022/09/09 09:33:40;;;;;;;0.63;0.47;;;19.50;99.90;;;;;;5035274;28;20049;-76
2022/09/09 09:36:09;;;;;;;0.30;0.30;;;19.50;99.90;;;;;;5035313;28;20041;-75
2022/09/09 09:38:35;;;;;;;2.95;1.23;;;19.60;99.90;;;;;;5035056;28;20041;-77
2022/09/09 09:41:02;;;;;;;10.70;1.42;;;19.70;99.90;;;;;;5017645;28;20033;-75
2022/09/09 09:43:33;;;;;;;0.10;0.10;;;19.90;99.90;;;;;;5035005;28;20124;-77
2022/09/09 09:45:59;;;;;;;0.30;0.30;;;20.10;99.90;;;;;;5035410;28;20037;-76
2022/09/09 09:48:26;;;;;;;0.57;0.52;;;20.20;99.90;;;;;;5035119;28;20104;-76
2022/09/09 09:50:58;;;;;;;0.20;0.20;;;20.20;99.90;;;;;;5017617;28;20048;-76
2022/09/09 09:53:27;;;;;;;0.20;0.20;;;20.10;99.90;;;;;;5034970;28;20045;-76
2022/09/09 09:56:03;;;;;;;0.10;0.10;;;19.80;99.90;;;;;;5034781;28;20046;-76
2022/09/09 09:58:38;;;;;;;0.20;0.20;;;19.50;99.90;;;;;;5035040;28;20463;-75
2022/09/09 10:01:04;;;;;;;0.95;0.90;;;19.60;99.90;;;;;;5035213;28;20038;-76
2022/09/09 10:03:39;;;;;;;0.00;0.00;;;19.90;99.90;;;;;;5034943;28;20454;-77
2022/09/09 10:06:04;;;;;;;1.45;0.75;;;20.30;99.90;;;;;;5035415;28;20418;-76
2022/09/09 10:08:34;;;;;;;1.95;0.88;;;20.50;99.90;;;;;;5034515;28;20192;-76
2022/09/09 10:11:13;;;;;;;0.55;0.55;;;20.60;99.90;;;;;;5034677;28;20052;-75
2022/09/09 10:14:00;;;;;;;0.85;0.32;;;21.00;99.90;;;;;;5034790;28;20054;-75
2022/09/09 10:16:52;;;;;;;9.68;1.65;;;21.40;99.90;;;;;;5034491;28;20615;-75
2022/09/09 10:19:25;;;;;;;1.10;0.40;;;21.40;99.90;;;;;;5034594;28;20128;-75
2022/09/09 10:21:55;;;;;;;3.00;0.70;;;20.90;99.90;;;;;;5034469;28;20041;-76
2022/09/09 10:24:44;;;;;;;0.20;0.13;;;20.90;99.90;;;;;;5034063;28;20514;-76
2022/09/09 10:27:28;;;;;;;0.10;0.10;;;21.00;99.90;;;;;;5034319;28;20054;-76
2022/09/09 10:30:04;;;;;;;0.45;0.38;;;21.30;99.90;;;;;;5034398;28;20096;-76
2022/09/09 10:32:56;;;;;;;0.03;0.03;;;21.70;99.90;;;;;;5016455;28;20049;-75
2022/09/09 10:35:27;;;;;;;0.85;0.60;;;21.60;99.90;;;;;;5016024;28;20041;-76
2022/09/09 10:38:13;;;;;;;1.55;0.20;;;21.10;99.90;;;;;;5033939;28;20584;-76
2022/09/09 10:40:55;;;;;;;0.40;0.35;;;21.20;99.90;;;;;;5034107;28;20038;-75
2022/09/09 10:43:33;;;;;;;0.25;0.20;;;21.20;99.90;;;;;;5033958;28;20045;-75
2022/09/09 10:46:08;;;;;;;0.47;0.47;;;21.50;99.90;;;;;;5033892;28;20061;-76
2022/09/09 10:48:45;;;;;;;0.47;0.25;;;21.70;99.90;;;;;;5034036;28;20041;-76
2022/09/09 10:51:11;;;;;;;0.00;0.00;;;21.90;99.90;;;;;;5033993;28;20038;-75
2022/09/09 10:54:03;;;;;;;0.68;0.43;;;22.10;99.90;;;;;;5033402;28;20416;-75
2022/09/09 10:56:30;;;;;;;0.10;0.10;;;22.70;99.90;;;;;;5033337;28;20523;-76
2022/09/09 10:59:02;;;;;;;0.15;0.08;;;23.00;99.90;;;;;;5033538;28;20487;-76
2022/09/09 11:01:37;;;;;;;1.15;0.52;;;22.80;99.90;;;;;;5033487;28;20037;-76
2022/09/09 11:04:16;;;;;;;0.93;0.47;;;22.10;99.90;;;;;;5033658;28;20033;-75
2022/09/09 11:06:46;;;;;;;0.00;0.00;;;22.30;99.90;;;;;;5033489;28;20120;-76
2022/09/09 11:09:19;;;;;;;0.20;0.15;;;22.80;99.90;;;;;;5033948;28;20052;-75
2022/09/09 11:11:54;;;;;;;0.00;0.00;;;22.90;99.90;;;;;;5033652;28;20088;-75
2022/09/09 11:14:44;;;;;;;0.43;0.28;;;22.90;99.90;;;;;;5015774;28;20503;-73
2022/09/09 11:17:20;;;;;;;0.00;0.00;;;23.10;99.90;;;;;;5033196;28;20045;-75
2022/09/09 11:19:46;;;;;;;1.50;0.95;;;23.00;99.90;;;;;;5033434;28;20053;-75
2022/09/09 11:22:24;;;;;;;9.73;0.52;;;23.00;99.90;;;;;;5033300;28;20067;-75
2022/09/09 11:24:55;;;;;;;0.40;0.40;;;22.90;99.90;;;;;;5033237;28;20056;-75
2022/09/09 11:27:24;;;;;;;0.25;0.25;;;22.90;99.90;;;;;;5033112;28;20454;-76
2022/09/09 11:30:20;;;;;;;1.15;0.98;;;23.00;99.90;;;;;;5032981;28;20041;-74
2022/09/09 11:32:58;;;;;;;0.00;0.00;;;23.30;99.90;;;;;;5015427;28;20042;-74
2022/09/09 11:35:39;;;;;;;0.28;0.22;;;24.10;99.90;;;;;;5032989;28;20416;-74
2022/09/09 11:38:04;;;;;;;0.40;0.40;;;22.50;99.90;;;;;;5032798;28;20132;-75
2022/09/09 11:40:32;;;;;;;0.05;0.05;;;22.70;99.90;;;;;;5032933;28;20677;-74
2022/09/09 11:43:22;;;;;;;2.10;0.90;;;22.90;99.90;;;;;;5033071;28;20461;-74
2022/09/09 11:45:55;;;;;;;0.40;0.40;;;23.10;99.90;;;;;;5032920;28;20495;-74
2022/09/09 11:48:39;;;;;;;0.00;0.00;;;22.60;99.90;;;;;;5031621;28;20088;-74
2022/09/09 11:51:10;;;;;;;0.13;0.10;;;22.10;99.90;;;;;;5032993;28;20123;-73
2022/09/09 11:53:52;;;;;;;0.00;0.00;;;21.90;99.90;;;;;;5032508;28;20381;-75
2022/09/09 11:56:34;;;;;;;1.50;0.38;;;21.90;99.90;;;;;;5032423;28;20091;-75
2022/09/09 11:59:06;;;;;;;0.00;0.00;;;22.20;99.90;;;;;;5032670;28;20103;-75
2022/09/09 12:01:37;;;;;;;0.00;0.00;;;22.70;99.90;;;;;;5032808;28;20046;-75
2022/09/09 12:04:09;;;;;;;0.13;0.10;;;24.00;99.90;;;;;;5032702;28;20168;-75
2022/09/09 12:06:49;;;;;;;0.10;0.10;;;24.60;99.90;;;;;;5032490;28;20046;-73
2022/09/09 12:09:23;;;;;;;0.28;0.25;;;24.20;99.90;;;;;;5032521;28;20045;-75
2022/09/09 12:11:49;;;;;;;1.00;0.38;;;23.70;96.70;;;;;;5032581;28;20053;-75
2022/09/09 12:14:38;;;;;;;0.10;0.10;;;23.50;99.90;;;;;;5032782;28;20049;-74
2022/09/09 12:17:20;;;;;;;0.00;0.00;;;23.20;99.90;;;;;;5032216;28;20090;-74
2022/09/09 12:19:46;;;;;;;0.00;0.00;;;23.00;99.90;;;;;;5015315;28;20072;-75
2022/09/09 12:22:36;;;;;;;0.15;0.05;;;22.90;99.90;;;;;;5032475;28;20381;-75
2022/09/09 12:25:22;;;;;;;0.75;0.60;;;23.00;99.90;;;;;;5032370;28;20084;-75
2022/09/09 12:28:04;;;;;;;0.10;0.10;;;23.40;99.90;;;;;;5032165;28;20474;-75
2022/09/09 12:30:56;;;;;;;1.00;0.57;;;23.40;99.90;;;;;;5032466;28;20049;-75
2022/09/09 12:33:23;;;;;;;0.03;0.03;;;23.10;99.90;;;;;;5032143;28;20041;-75
2022/09/09 12:35:57;;;;;;;0.30;0.30;;;22.90;99.90;;;;;;5032529;28;20124;-73
2022/09/09 12:38:32;;;;;;;0.00;0.00;;;23.30;99.90;;;;;;5032118;28;20045;-74
2022/09/09 12:40:59;;;;;;;0.17;0.15;;;23.60;97.40;;;;;;5014386;28;20099;-75
2022/09/09 12:43:27;;;;;;;4.85;1.13;;;23.70;99.90;;;;;;5032004;28;20124;-74
2022/09/09 12:46:00;;;;;;;0.70;0.70;;;23.60;98.30;;;;;;5032056;28;20396;-74
2022/09/09 12:48:46;;;;;;;0.52;0.30;;;23.50;97.40;;;;;;5031820;28;20077;-74
2022/09/09 12:51:24;;;;;;;0.38;0.28;;;23.60;99.80;;;;;;5031809;28;20058;-74
2022/09/09 12:53:51;;;;;;;0.10;0.10;;;23.80;95.50;;;;;;5031998;28;20041;-75
2022/09/09 12:56:26;;;;;;;0.80;0.57;;;24.20;85.70;;;;;;5031824;28;20489;-75
2022/09/09 12:58:54;;;;;;;0.10;0.10;;;23.90;94.70;;;;;;5033640;28;20080;-75
2022/09/09 13:01:23;;;;;;;0.45;0.13;;;23.40;91.60;;;;;;5035820;28;20038;-74
2022/09/09 13:03:49;;;;;;;0.00;0.00;;;23.20;94.80;;;;;;5035867;28;20045;-74
2022/09/09 13:06:23;;;;;;;0.00;0.00;;;23.40;89.70;;;;;;5035847;28;20515;-75
2022/09/09 13:08:50;;;;;;;0.00;0.00;;;23.50;94.40;;;;;;5035770;28;20045;-75
2022/09/09 13:11:41;;;;;;;0.10;0.10;;;24.70;75.20;;;;;;5035725;28;20471;-76
2022/09/09 13:14:18;;;;;;;0.00;0.00;;;24.90;81.30;;;;;;5036122;28;20466;-76
2022/09/09 13:16:54;;;;;;;0.10;0.10;;;23.70;81.60;;;;;;5035868;28;20041;-75